Time;durP1;ratioP1;P1;durP2;ratioP2;P2;SDS_P1;SDS_P2;PMS_P1;PMS_P2;Temp;Humidity;BMP_temperature;BMP_pressure;BME280_temperature;BME280_humidity;BME280_pressure;Samples;Min_cycle;Max_cycle;Signal;HPM_P1;HPM_P2
2023/05/16 00:00:25;;;;;;;4.57;1.40;;;8.30;99.90;;;;;;4991785;28;20023;-52
2023/05/16 00:02:51;;;;;;;0.77;0.57;;;8.30;99.90;;;;;;4991817;28;20034;-50
2023/05/16 00:05:17;;;;;;;1.02;0.90;;;8.30;99.90;;;;;;4991048;28;20022;-44
2023/05/16 00:07:46;;;;;;;1.23;0.98;;;8.30;99.90;;;;;;4991552;28;20026;-46
2023/05/16 00:10:12;;;;;;;3.75;0.85;;;8.20;99.90;;;;;;4991519;28;20025;-52
2023/05/16 00:12:38;;;;;;;2.00;1.00;;;8.20;99.90;;;;;;4991581;28;20030;-50
2023/05/16 00:15:11;;;;;;;1.30;1.20;;;8.10;99.90;;;;;;4991403;28;20025;-43
2023/05/16 00:17:37;;;;;;;1.65;0.88;;;8.00;99.90;;;;;;4991222;28;20482;-51
2023/05/16 00:20:09;;;;;;;1.65;1.15;;;7.90;99.90;;;;;;4991365;28;20037;-48
2023/05/16 00:22:36;;;;;;;2.10;0.77;;;7.90;99.90;;;;;;4991543;28;20034;-48
2023/05/16 00:25:02;;;;;;;2.47;1.40;;;7.90;99.90;;;;;;4991518;28;20023;-48
2023/05/16 00:27:28;;;;;;;0.55;0.55;;;7.90;99.90;;;;;;4990967;28;20031;-45
2023/05/16 00:29:54;;;;;;;1.45;1.23;;;7.90;99.90;;;;;;4991401;28;20424;-54
2023/05/16 00:32:20;;;;;;;0.85;0.82;;;7.80;99.90;;;;;;4991240;28;20061;-42
2023/05/16 00:34:45;;;;;;;1.13;0.90;;;7.80;99.90;;;;;;4991435;28;20023;-43
2023/05/16 00:37:11;;;;;;;1.17;0.80;;;7.80;99.90;;;;;;4991155;28;20160;-45
2023/05/16 00:39:37;;;;;;;0.30;0.30;;;7.80;99.90;;;;;;4991307;28;20015;-49
2023/05/16 00:42:02;;;;;;;0.88;0.75;;;7.80;99.90;;;;;;4991133;28;20398;-48
2023/05/16 00:44:28;;;;;;;0.63;0.63;;;7.70;99.90;;;;;;4991110;28;20102;-53
2023/05/16 00:46:54;;;;;;;0.75;0.75;;;7.60;99.90;;;;;;4991226;28;20029;-49
2023/05/16 00:49:20;;;;;;;0.55;0.50;;;7.60;99.90;;;;;;4991022;28;20027;-45
2023/05/16 00:51:46;;;;;;;0.52;0.52;;;7.60;99.90;;;;;;4991275;28;20101;-46
2023/05/16 00:54:12;;;;;;;17.48;0.90;;;7.60;99.90;;;;;;4991293;28;20409;-54
2023/05/16 00:56:38;;;;;;;0.63;0.63;;;7.50;99.90;;;;;;4991064;28;20034;-44
2023/05/16 00:59:04;;;;;;;0.80;0.73;;;7.50;99.90;;;;;;4991344;28;20026;-53
2023/05/16 01:01:30;;;;;;;1.77;1.15;;;7.50;99.90;;;;;;4990888;28;20030;-55
2023/05/16 01:03:56;;;;;;;0.60;0.60;;;7.60;99.90;;;;;;4991159;28;20033;-48
2023/05/16 01:06:22;;;;;;;0.35;0.35;;;7.70;99.90;;;;;;4991237;28;20036;-42
2023/05/16 01:08:47;;;;;;;0.45;0.45;;;7.70;99.90;;;;;;4990998;28;20101;-48
2023/05/16 01:11:27;;;;;;;0.55;0.55;;;7.70;99.90;;;;;;4991244;28;20026;-56
2023/05/16 01:14:17;;;;;;;0.47;0.40;;;7.80;99.90;;;;;;4991023;28;20026;-49
2023/05/16 01:17:19;;;;;;;0.40;0.40;;;7.80;99.90;;;;;;4989663;28;20034;-51
2023/05/16 01:19:59;;;;;;;0.63;0.40;;;7.90;99.90;;;;;;4981950;28;20030;-42
2023/05/16 01:22:36;;;;;;;0.38;0.35;;;7.90;99.90;;;;;;4994547;28;20046;-41
2023/05/16 01:25:19;;;;;;;0.20;0.20;;;7.90;99.90;;;;;;4994779;28;20058;-46
2023/05/16 01:27:45;;;;;;;6.50;1.00;;;7.90;99.90;;;;;;4994747;28;20061;-41
2023/05/16 01:30:16;;;;;;;0.30;0.30;;;7.80;99.90;;;;;;4994779;28;20054;-52
2023/05/16 01:32:42;;;;;;;0.52;0.52;;;7.80;99.90;;;;;;4994530;28;20049;-46
2023/05/16 01:35:10;;;;;;;0.52;0.52;;;7.80;99.90;;;;;;4994472;28;20019;-53
2023/05/16 01:38:00;;;;;;;0.38;0.38;;;7.80;99.90;;;;;;4994452;28;20049;-48
2023/05/16 01:40:53;;;;;;;2.55;0.70;;;7.80;99.90;;;;;;4983789;28;20105;-48
2023/05/16 01:43:28;;;;;;;0.40;0.40;;;7.80;99.90;;;;;;4994652;28;20050;-51
2023/05/16 01:46:02;;;;;;;0.45;0.40;;;7.80;99.90;;;;;;5000227;28;20062;-44
2023/05/16 01:48:36;;;;;;;0.38;0.38;;;7.80;99.90;;;;;;4994197;28;20040;-55
2023/05/16 01:51:03;;;;;;;0.73;0.68;;;7.80;99.90;;;;;;4994209;28;20473;-47
2023/05/16 01:53:37;;;;;;;0.73;0.68;;;7.70;99.90;;;;;;4994078;28;20038;-52
2023/05/16 01:56:07;;;;;;;0.98;0.82;;;7.60;99.90;;;;;;4994139;28;20405;-47
2023/05/16 01:58:35;;;;;;;1.20;0.93;;;7.50;99.90;;;;;;4993866;28;20030;-47
2023/05/16 02:01:03;;;;;;;0.30;0.30;;;7.50;99.90;;;;;;4994074;28;20026;-43
2023/05/16 02:03:30;;;;;;;0.50;0.47;;;7.50;99.90;;;;;;4993786;28;20153;-51
2023/05/16 02:05:56;;;;;;;1.05;1.05;;;7.40;99.90;;;;;;4993914;28;20415;-55
2023/05/16 02:08:23;;;;;;;0.30;0.30;;;7.30;99.90;;;;;;4993793;28;20401;-50
2023/05/16 02:10:49;;;;;;;0.40;0.40;;;7.30;99.90;;;;;;4993718;28;20031;-51
2023/05/16 02:13:14;;;;;;;0.45;0.45;;;7.20;99.90;;;;;;4993976;28;20114;-50
2023/05/16 02:15:40;;;;;;;0.35;0.30;;;7.20;99.90;;;;;;4993770;28;20058;-49
2023/05/16 02:18:06;;;;;;;0.95;0.88;;;7.10;99.90;;;;;;4993723;28;20090;-47
2023/05/16 02:20:32;;;;;;;0.57;0.57;;;7.10;99.90;;;;;;4993600;28;20033;-56
2023/05/16 02:22:58;;;;;;;0.30;0.30;;;7.10;99.90;;;;;;4993289;28;20527;-48
2023/05/16 02:25:24;;;;;;;0.40;0.40;;;7.10;99.90;;;;;;4993491;28;20022;-48
2023/05/16 02:27:49;;;;;;;3.95;0.70;;;7.10;99.90;;;;;;4992992;28;20392;-46
2023/05/16 02:30:15;;;;;;;0.47;0.47;;;7.10;99.90;;;;;;4994645;28;20034;-48
2023/05/16 02:32:43;;;;;;;1.23;0.82;;;7.10;99.90;;;;;;5005874;28;20057;-53
2023/05/16 02:35:09;;;;;;;0.47;0.43;;;7.20;99.90;;;;;;4998423;28;20019;-52
2023/05/16 02:37:35;;;;;;;0.30;0.30;;;7.10;99.90;;;;;;4997537;28;20034;-46
2023/05/16 02:40:04;;;;;;;0.47;0.47;;;7.10;99.90;;;;;;5003433;28;20381;-46
2023/05/16 02:42:30;;;;;;;0.47;0.47;;;7.00;99.90;;;;;;5001802;28;20050;-49
2023/05/16 02:44:56;;;;;;;0.45;0.45;;;7.00;99.90;;;;;;5006402;28;20061;-47
2023/05/16 02:47:22;;;;;;;0.38;0.38;;;7.00;99.90;;;;;;5001756;28;20068;-41
2023/05/16 02:49:48;;;;;;;0.75;0.70;;;6.90;99.90;;;;;;5003107;28;20026;-41
2023/05/16 02:52:13;;;;;;;1.27;0.73;;;6.70;99.90;;;;;;4992827;28;20061;-41
2023/05/16 02:54:39;;;;;;;0.90;0.60;;;6.70;99.90;;;;;;4993140;28;20539;-44
2023/05/16 02:57:05;;;;;;;0.60;0.43;;;6.60;99.90;;;;;;4993091;28;20561;-50
2023/05/16 02:59:30;;;;;;;1.33;0.75;;;6.50;99.90;;;;;;4992764;28;20034;-50
2023/05/16 03:01:56;;;;;;;0.45;0.45;;;6.20;99.90;;;;;;4992675;28;20104;-48
2023/05/16 03:04:22;;;;;;;0.40;0.40;;;6.20;99.90;;;;;;4992690;28;20114;-46
2023/05/16 03:06:50;;;;;;;0.55;0.55;;;6.10;99.90;;;;;;4992441;28;20022;-42
2023/05/16 03:09:15;;;;;;;0.30;0.30;;;6.00;99.90;;;;;;4992787;28;20034;-47
2023/05/16 03:11:41;;;;;;;0.30;0.30;;;5.90;99.90;;;;;;4992532;28;20375;-48
2023/05/16 03:14:07;;;;;;;0.43;0.43;;;5.90;99.90;;;;;;4992474;28;20113;-46
2023/05/16 03:16:33;;;;;;;0.30;0.30;;;5.90;99.90;;;;;;4992458;28;20113;-43
2023/05/16 03:18:58;;;;;;;0.20;0.20;;;5.90;99.90;;;;;;4992226;28;20030;-42
2023/05/16 03:21:24;;;;;;;1.05;0.40;;;6.00;99.90;;;;;;4992517;28;20022;-47
2023/05/16 03:23:50;;;;;;;0.82;0.82;;;6.00;99.90;;;;;;4992369;28;20018;-53
2023/05/16 03:26:16;;;;;;;0.70;0.70;;;6.10;99.90;;;;;;4999068;28;20029;-55
2023/05/16 03:28:41;;;;;;;0.30;0.30;;;6.10;99.90;;;;;;5011897;28;20077;-47
2023/05/16 03:31:07;;;;;;;0.55;0.55;;;6.20;99.90;;;;;;5011908;28;20473;-51
2023/05/16 03:33:33;;;;;;;0.30;0.30;;;6.20;99.90;;;;;;5011787;28;20060;-43
2023/05/16 03:35:58;;;;;;;0.60;0.60;;;6.30;99.90;;;;;;5026513;28;20029;-43
2023/05/16 03:38:24;;;;;;;1.05;0.77;;;6.20;99.90;;;;;;5011763;28;20081;-59
2023/05/16 03:40:50;;;;;;;0.63;0.63;;;6.20;99.90;;;;;;5010802;28;20377;-52
2023/05/16 03:43:15;;;;;;;0.22;0.22;;;6.20;99.90;;;;;;5011608;28;20146;-52
2023/05/16 03:45:42;;;;;;;0.60;0.50;;;6.20;99.90;;;;;;5011678;28;20496;-50
2023/05/16 03:48:08;;;;;;;1.27;0.60;;;6.20;99.90;;;;;;5011482;28;20045;-48
2023/05/16 03:50:36;;;;;;;0.65;0.57;;;6.10;99.90;;;;;;5011538;28;20026;-45
2023/05/16 03:53:02;;;;;;;0.90;0.60;;;6.10;99.90;;;;;;5011638;28;20026;-44
2023/05/16 03:55:28;;;;;;;1.58;0.68;;;6.20;99.90;;;;;;5011496;28;20156;-43
2023/05/16 03:57:53;;;;;;;0.60;0.50;;;6.20;99.90;;;;;;5011364;28;20504;-45
2023/05/16 04:00:19;;;;;;;0.20;0.20;;;6.10;99.90;;;;;;5011130;28;20025;-43
2023/05/16 04:02:44;;;;;;;1.92;1.17;;;6.00;99.90;;;;;;5011217;28;20022;-46
2023/05/16 04:05:12;;;;;;;0.35;0.35;;;6.00;99.90;;;;;;5011201;28;20025;-53
2023/05/16 04:07:37;;;;;;;0.75;0.75;;;5.90;99.90;;;;;;5011472;28;20084;-44
2023/05/16 04:10:03;;;;;;;1.00;0.52;;;6.00;99.90;;;;;;5011045;28;20022;-53
2023/05/16 04:12:29;;;;;;;0.50;0.50;;;6.00;99.90;;;;;;5011169;28;20503;-55
2023/05/16 04:14:55;;;;;;;0.40;0.40;;;6.00;99.90;;;;;;5011293;28;20029;-54
2023/05/16 04:17:20;;;;;;;0.63;0.52;;;6.00;99.90;;;;;;5010907;28;20573;-48
2023/05/16 04:19:46;;;;;;;0.50;0.30;;;6.00;99.90;;;;;;5011085;28;20401;-47
2023/05/16 04:22:11;;;;;;;0.40;0.40;;;6.00;99.90;;;;;;5010836;28;20358;-46
2023/05/16 04:24:37;;;;;;;0.80;0.60;;;6.00;99.90;;;;;;5011116;28;20078;-49
2023/05/16 04:27:04;;;;;;;0.40;0.40;;;6.00;99.90;;;;;;5010771;28;20022;-46
2023/05/16 04:29:31;;;;;;;0.47;0.47;;;6.00;99.90;;;;;;5011130;28;20029;-56
2023/05/16 04:31:56;;;;;;;0.82;0.82;;;6.10;99.90;;;;;;5010867;28;20033;-53
2023/05/16 04:34:26;;;;;;;0.28;0.28;;;6.10;99.90;;;;;;5010735;28;20380;-44
2023/05/16 04:36:52;;;;;;;0.35;0.25;;;6.10;99.90;;;;;;5011068;28;20045;-51
2023/05/16 04:39:18;;;;;;;0.38;0.38;;;6.10;99.90;;;;;;5010820;28;20034;-47
2023/05/16 04:41:44;;;;;;;0.47;0.47;;;6.20;99.90;;;;;;5010658;28;20057;-54
2023/05/16 04:44:10;;;;;;;0.60;0.60;;;6.20;99.90;;;;;;5010629;28;20034;-50
2023/05/16 04:46:36;;;;;;;1.10;1.00;;;6.20;99.90;;;;;;5010657;28;20362;-50
2023/05/16 04:49:01;;;;;;;0.52;0.50;;;6.20;99.90;;;;;;5010876;28;20034;-48
2023/05/16 04:51:27;;;;;;;0.30;0.30;;;6.20;99.90;;;;;;5011899;28;20022;-46
2023/05/16 04:53:53;;;;;;;0.70;0.55;;;6.30;99.90;;;;;;5015161;28;20076;-48
2023/05/16 04:56:19;;;;;;;0.30;0.30;;;6.30;99.90;;;;;;5014695;28;20018;-51
2023/05/16 04:58:45;;;;;;;0.95;0.70;;;6.30;99.90;;;;;;5014789;28;20484;-47
2023/05/16 05:01:10;;;;;;;0.25;0.25;;;6.40;99.90;;;;;;5014729;28;20025;-58
2023/05/16 05:03:36;;;;;;;0.47;0.47;;;6.40;99.90;;;;;;5014767;28;20113;-51
2023/05/16 05:06:02;;;;;;;0.40;0.30;;;6.50;99.90;;;;;;5014787;28;20045;-54
2023/05/16 05:08:28;;;;;;;0.90;0.77;;;6.60;99.90;;;;;;5014609;28;20021;-48
2023/05/16 05:10:55;;;;;;;0.43;0.35;;;6.60;99.90;;;;;;5015018;28;20369;-53
2023/05/16 05:13:21;;;;;;;0.75;0.63;;;6.60;99.90;;;;;;5014670;28;20068;-56
2023/05/16 05:15:49;;;;;;;0.50;0.50;;;6.70;99.90;;;;;;5014433;28;20026;-46
2023/05/16 05:18:15;;;;;;;0.75;0.75;;;6.80;99.90;;;;;;5014666;28;20127;-43
2023/05/16 05:20:40;;;;;;;0.40;0.40;;;6.80;99.90;;;;;;5014332;28;20418;-44
2023/05/16 05:23:06;;;;;;;0.32;0.30;;;6.90;99.90;;;;;;5014560;28;20026;-53
2023/05/16 05:25:32;;;;;;;3.60;0.93;;;7.00;99.90;;;;;;5014357;28;20084;-53
2023/05/16 05:27:58;;;;;;;7.10;1.65;;;7.10;99.90;;;;;;5014268;28;20026;-53
2023/05/16 05:30:23;;;;;;;0.82;0.80;;;7.20;99.90;;;;;;5014175;28;20076;-47
2023/05/16 05:32:49;;;;;;;0.50;0.50;;;7.20;99.90;;;;;;5014068;28;20022;-45
2023/05/16 05:35:15;;;;;;;0.68;0.52;;;7.20;99.90;;;;;;5014354;28;20036;-46
2023/05/16 05:37:41;;;;;;;0.55;0.55;;;7.20;99.90;;;;;;5014047;28;20044;-44
2023/05/16 05:40:07;;;;;;;2.83;1.23;;;7.40;99.90;;;;;;5014083;28;20052;-50
2023/05/16 05:42:33;;;;;;;1.13;1.02;;;7.70;99.90;;;;;;5013884;28;20053;-54
2023/05/16 05:44:58;;;;;;;1.02;0.90;;;8.00;99.90;;;;;;5013923;28;20033;-50
2023/05/16 05:47:24;;;;;;;0.90;0.90;;;8.40;99.90;;;;;;5013841;28;20037;-45
2023/05/16 05:49:50;;;;;;;0.73;0.68;;;8.90;99.90;;;;;;5013869;28;20067;-46
2023/05/16 05:52:16;;;;;;;6.35;1.33;;;9.70;99.90;;;;;;5029011;28;20034;-46
2023/05/16 05:54:41;;;;;;;1.27;1.02;;;10.40;99.90;;;;;;5013698;28;20381;-49
2023/05/16 05:57:07;;;;;;;0.82;0.82;;;11.40;99.90;;;;;;5013687;28;20041;-46
2023/05/16 05:59:33;;;;;;;1.42;1.08;;;12.30;99.90;;;;;;5013330;28;20370;-44
2023/05/16 06:01:58;;;;;;;0.98;0.88;;;13.40;99.90;;;;;;5013617;28;20129;-44
2023/05/16 06:04:24;;;;;;;2.38;1.20;;;14.30;99.90;;;;;;5028071;28;20117;-58
2023/05/16 06:06:50;;;;;;;0.90;0.75;;;15.10;99.90;;;;;;5013353;28;20025;-46
2023/05/16 06:09:15;;;;;;;1.00;0.88;;;15.70;99.90;;;;;;5013655;28;20026;-42
2023/05/16 06:11:44;;;;;;;2.47;1.42;;;16.30;99.90;;;;;;5013346;28;20022;-44
2023/05/16 06:14:10;;;;;;;1.70;0.93;;;16.80;99.90;;;;;;5013478;28;20033;-47
2023/05/16 06:16:35;;;;;;;3.08;1.48;;;17.40;99.90;;;;;;5013391;28;20029;-43
2023/05/16 06:19:01;;;;;;;1.88;0.82;;;17.70;99.90;;;;;;5013345;28;20477;-50
2023/05/16 06:21:27;;;;;;;3.33;1.45;;;18.10;99.90;;;;;;5013351;28;20032;-47
2023/05/16 06:23:52;;;;;;;1.25;0.80;;;18.70;99.70;;;;;;5012985;28;20014;-44
2023/05/16 06:26:18;;;;;;;1.15;0.60;;;18.90;95.90;;;;;;5011861;28;20472;-51
2023/05/16 06:28:43;;;;;;;2.45;0.88;;;19.10;94.70;;;;;;5011709;28;20018;-46
2023/05/16 06:31:09;;;;;;;1.40;0.80;;;19.50;93.80;;;;;;5013024;28;20531;-44
2023/05/16 06:33:34;;;;;;;0.95;0.60;;;19.90;93.70;;;;;;5013047;28;20084;-52
2023/05/16 06:36:00;;;;;;;0.60;0.60;;;20.30;92.00;;;;;;5012998;28;20473;-43
2023/05/16 06:38:26;;;;;;;1.52;0.80;;;20.60;89.70;;;;;;5012827;28;20046;-51
2023/05/16 06:40:51;;;;;;;0.85;0.60;;;20.70;86.20;;;;;;5012729;28;20022;-58
2023/05/16 06:43:17;;;;;;;1.45;0.80;;;21.20;82.40;;;;;;5011491;28;20038;-53
2023/05/16 06:45:45;;;;;;;1.63;0.65;;;21.40;82.00;;;;;;4999707;28;20026;-47
2023/05/16 06:48:13;;;;;;;3.58;1.00;;;21.70;80.20;;;;;;4993241;28;20474;-49
2023/05/16 06:50:39;;;;;;;1.23;0.55;;;22.10;78.70;;;;;;4993194;28;20041;-46
2023/05/16 06:53:06;;;;;;;2.10;0.63;;;22.50;76.50;;;;;;4993321;28;20405;-44
2023/05/16 06:55:32;;;;;;;2.40;0.75;;;23.00;78.10;;;;;;4993082;28;20018;-47
2023/05/16 06:57:58;;;;;;;0.77;0.40;;;23.00;73.30;;;;;;4992858;28;20030;-44
2023/05/16 07:00:23;;;;;;;1.25;0.70;;;22.80;69.90;;;;;;4992795;28;20025;-43
2023/05/16 07:02:49;;;;;;;1.00;0.55;;;23.10;72.60;;;;;;4992933;28;20446;-48
2023/05/16 07:05:15;;;;;;;0.65;0.35;;;23.30;72.10;;;;;;5003086;28;20022;-50
2023/05/16 07:07:40;;;;;;;0.63;0.50;;;23.40;69.20;;;;;;4996917;28;20183;-44
2023/05/16 07:10:06;;;;;;;0.50;0.40;;;23.80;67.30;;;;;;4993729;28;20034;-43
2023/05/16 07:12:32;;;;;;;1.90;0.32;;;24.00;65.50;;;;;;4998119;28;20401;-44
2023/05/16 07:14:58;;;;;;;0.73;0.30;;;23.90;67.60;;;;;;4995157;28;20034;-48
2023/05/16 07:17:24;;;;;;;0.70;0.30;;;24.00;67.50;;;;;;4996553;28;20564;-47
2023/05/16 07:19:49;;;;;;;0.47;0.40;;;24.50;64.60;;;;;;4994742;28;20053;-48
2023/05/16 07:22:15;;;;;;;0.95;0.40;;;24.30;63.20;;;;;;4992670;28;20027;-49
2023/05/16 07:24:40;;;;;;;0.50;0.40;;;24.40;64.90;;;;;;4992185;28;20093;-48
2023/05/16 07:27:06;;;;;;;0.47;0.40;;;24.80;64.20;;;;;;4992310;28;20031;-48
2023/05/16 07:29:32;;;;;;;0.75;0.30;;;24.70;61.80;;;;;;4992159;28;20401;-43
2023/05/16 07:31:58;;;;;;;1.73;0.50;;;25.10;63.10;;;;;;4985390;28;20034;-46
2023/05/16 07:34:23;;;;;;;0.75;0.20;;;25.40;63.90;;;;;;4997542;28;20037;-49
2023/05/16 07:36:49;;;;;;;0.70;0.38;;;25.70;62.30;;;;;;5001712;28;20032;-44
2023/05/16 07:39:15;;;;;;;1.55;0.32;;;25.90;59.90;;;;;;5007699;28;20229;-56
2023/05/16 07:41:41;;;;;;;0.98;0.38;;;26.00;59.50;;;;;;5011615;28;20056;-50
2023/05/16 07:44:06;;;;;;;2.28;0.55;;;26.30;60.10;;;;;;5011774;28;20030;-54
2023/05/16 07:46:32;;;;;;;0.85;0.43;;;26.30;57.80;;;;;;5011516;28;20115;-49
2023/05/16 07:48:58;;;;;;;1.38;0.68;;;26.10;55.50;;;;;;5011794;28;20064;-58
2023/05/16 07:51:23;;;;;;;1.40;0.55;;;26.30;55.30;;;;;;5011531;28;20018;-49
2023/05/16 07:53:50;;;;;;;2.60;0.40;;;26.20;59.80;;;;;;5011717;28;20030;-46
2023/05/16 07:56:16;;;;;;;0.57;0.30;;;26.60;60.30;;;;;;5008967;28;20026;-56
2023/05/16 07:58:41;;;;;;;0.65;0.30;;;26.30;55.10;;;;;;4991707;28;20042;-45
2023/05/16 08:01:07;;;;;;;0.55;0.30;;;26.50;56.80;;;;;;4987280;28;20031;-53
2023/05/16 08:03:34;;;;;;;0.95;0.30;;;26.50;54.30;;;;;;4984772;28;20026;-57
2023/05/16 08:05:59;;;;;;;1.05;0.38;;;26.70;56.80;;;;;;4991553;28;20113;-52
2023/05/16 08:08:25;;;;;;;1.00;0.30;;;26.70;52.70;;;;;;5001711;28;20101;-49
2023/05/16 08:10:50;;;;;;;0.40;0.30;;;26.70;58.40;;;;;;5008292;28;20424;-53
2023/05/16 08:13:16;;;;;;;0.75;0.25;;;26.60;56.10;;;;;;4997723;28;20070;-42
2023/05/16 08:15:42;;;;;;;1.08;0.20;;;26.50;58.50;;;;;;4991622;28;20030;-43
2023/05/16 08:18:15;;;;;;;0.20;0.20;;;26.70;55.10;;;;;;4990509;28;20026;-42
2023/05/16 08:20:41;;;;;;;0.28;0.28;;;26.70;52.90;;;;;;4990155;28;20591;-44
2023/05/16 08:23:08;;;;;;;0.65;0.40;;;26.80;54.70;;;;;;4991054;28;20409;-42
2023/05/16 08:25:34;;;;;;;1.02;0.40;;;26.60;52.30;;;;;;4990644;28;20112;-42
2023/05/16 08:28:03;;;;;;;0.20;0.20;;;26.30;57.40;;;;;;4994975;28;20359;-42
2023/05/16 08:30:29;;;;;;;0.70;0.40;;;26.30;55.40;;;;;;4993885;28;20076;-43
2023/05/16 08:32:54;;;;;;;2.40;0.30;;;26.20;53.80;;;;;;4996511;28;20026;-47
2023/05/16 08:35:20;;;;;;;0.45;0.20;;;26.00;56.90;;;;;;5010907;28;20080;-46
2023/05/16 08:37:46;;;;;;;0.20;0.20;;;25.90;53.90;;;;;;5006737;28;20110;-47
2023/05/16 08:40:13;;;;;;;0.15;0.10;;;26.10;54.70;;;;;;4991063;28;20030;-44
2023/05/16 08:42:39;;;;;;;0.52;0.30;;;26.30;55.90;;;;;;4990465;28;20070;-47
2023/05/16 08:45:06;;;;;;;0.30;0.20;;;26.30;55.70;;;;;;4991145;28;20105;-50
2023/05/16 08:47:33;;;;;;;1.65;0.30;;;26.00;59.10;;;;;;4991115;28;20470;-46
2023/05/16 08:50:01;;;;;;;0.10;0.10;;;26.30;54.90;;;;;;4991320;28;20522;-48
2023/05/16 08:52:30;;;;;;;0.30;0.30;;;26.40;55.50;;;;;;4991021;28;20031;-45
2023/05/16 08:55:00;;;;;;;1.20;0.30;;;26.30;54.00;;;;;;4991000;28;20113;-43
2023/05/16 08:57:27;;;;;;;0.43;0.25;;;26.50;53.70;;;;;;5001723;28;20030;-54
2023/05/16 08:59:55;;;;;;;0.45;0.28;;;26.60;52.90;;;;;;4988882;28;20034;-46
2023/05/16 09:02:21;;;;;;;1.63;0.40;;;26.80;54.80;;;;;;4984110;28;20065;-56
2023/05/16 09:04:48;;;;;;;2.67;0.30;;;26.60;53.80;;;;;;4990830;28;20641;-40
2023/05/16 09:07:14;;;;;;;0.40;0.30;;;26.60;53.00;;;;;;4989897;28;20113;-48
2023/05/16 09:09:40;;;;;;;0.38;0.30;;;26.70;56.10;;;;;;4990979;28;20489;-56
2023/05/16 09:12:07;;;;;;;0.20;0.20;;;26.70;53.70;;;;;;4989564;28;20033;-46
2023/05/16 09:14:32;;;;;;;0.75;0.30;;;26.90;56.10;;;;;;4990920;28;20054;-48
2023/05/16 09:17:08;;;;;;;0.40;0.30;;;26.90;53.30;;;;;;4990734;28;20062;-49
2023/05/16 09:19:39;;;;;;;0.20;0.20;;;27.20;53.70;;;;;;4990919;28;20022;-50
2023/05/16 09:22:08;;;;;;;0.63;0.20;;;27.50;54.30;;;;;;4990855;28;20025;-42
2023/05/16 09:24:38;;;;;;;0.35;0.20;;;27.00;52.90;;;;;;4991003;28;20022;-46
2023/05/16 09:27:12;;;;;;;0.17;0.17;;;26.70;49.30;;;;;;4990907;28;20110;-43
2023/05/16 09:29:42;;;;;;;1.42;0.20;;;25.80;51.20;;;;;;4990917;28;20367;-51
2023/05/16 09:32:17;;;;;;;2.92;0.40;;;25.80;56.60;;;;;;4990361;28;20478;-56
2023/05/16 09:34:48;;;;;;;0.20;0.20;;;26.10;54.30;;;;;;4984535;28;20029;-51
2023/05/16 09:37:17;;;;;;;0.68;0.30;;;26.50;55.10;;;;;;5010386;28;20041;-43
2023/05/16 09:39:48;;;;;;;0.28;0.20;;;26.70;55.70;;;;;;5002931;28;20015;-56
2023/05/16 09:42:15;;;;;;;0.30;0.22;;;27.30;54.90;;;;;;4994152;28;20077;-46
2023/05/16 09:44:44;;;;;;;0.28;0.28;;;27.40;57.50;;;;;;4994310;28;20115;-56
2023/05/16 09:47:12;;;;;;;0.73;0.30;;;27.50;51.70;;;;;;4994092;28;20026;-42
2023/05/16 09:49:38;;;;;;;0.20;0.20;;;27.70;53.20;;;;;;4994305;28;20091;-49
2023/05/16 09:52:04;;;;;;;0.32;0.20;;;28.00;54.80;;;;;;4994404;28;20030;-43
2023/05/16 09:54:34;;;;;;;0.20;0.20;;;28.40;54.10;;;;;;5002139;28;20422;-44
2023/05/16 09:57:00;;;;;;;0.20;0.20;;;28.30;50.80;;;;;;4993894;28;20030;-51
2023/05/16 09:59:30;;;;;;;0.55;0.17;;;27.50;53.40;;;;;;4993964;28;20033;-42
2023/05/16 10:01:59;;;;;;;1.40;0.30;;;26.60;51.80;;;;;;4994282;28;20022;-44
2023/05/16 10:04:25;;;;;;;1.13;0.30;;;25.60;52.50;;;;;;4993984;28;20031;-61
2023/05/16 10:06:52;;;;;;;0.30;0.20;;;25.70;54.70;;;;;;4994111;28;20054;-50
2023/05/16 10:09:18;;;;;;;0.22;0.20;;;26.20;54.10;;;;;;4993972;28;20026;-42
2023/05/16 10:11:45;;;;;;;0.38;0.32;;;26.30;54.30;;;;;;4993981;28;20018;-41
2023/05/16 10:14:12;;;;;;;0.57;0.20;;;26.00;49.70;;;;;;4994193;28;20109;-46
2023/05/16 10:16:42;;;;;;;1.95;0.40;;;26.00;54.50;;;;;;4993887;28;20025;-43
2023/05/16 10:19:08;;;;;;;0.20;0.20;;;25.40;53.80;;;;;;4993756;28;20030;-48
2023/05/16 10:21:36;;;;;;;0.63;0.20;;;24.60;54.70;;;;;;4993679;28;20030;-51
2023/05/16 10:24:05;;;;;;;0.10;0.10;;;23.80;53.20;;;;;;4993832;28;20061;-52
2023/05/16 10:26:32;;;;;;;0.68;0.22;;;22.90;58.20;;;;;;4993906;28;20092;-56
2023/05/16 10:29:00;;;;;;;0.65;0.40;;;22.70;56.60;;;;;;4993523;28;20058;-47
2023/05/16 10:31:28;;;;;;;1.17;0.20;;;22.30;56.90;;;;;;4993413;28;20101;-51
2023/05/16 10:33:55;;;;;;;0.10;0.10;;;22.70;62.30;;;;;;5007204;28;20018;-48
2023/05/16 10:36:21;;;;;;;1.75;0.28;;;23.30;61.60;;;;;;5013065;28;20025;-40
2023/05/16 10:38:48;;;;;;;0.55;0.20;;;24.00;57.60;;;;;;5012822;28;20107;-45
2023/05/16 10:41:14;;;;;;;0.30;0.30;;;23.80;57.10;;;;;;5012707;28;20048;-43
2023/05/16 10:43:45;;;;;;;0.85;0.32;;;23.50;58.60;;;;;;5013251;28;20034;-43
2023/05/16 10:46:11;;;;;;;0.82;0.35;;;22.90;56.20;;;;;;5012902;28;20028;-44
2023/05/16 10:48:38;;;;;;;0.30;0.30;;;22.60;56.70;;;;;;5012858;28;20026;-42
2023/05/16 10:51:22;;;;;;;2.42;0.40;;;22.80;64.20;;;;;;5006427;28;20062;-48
2023/05/16 10:53:54;;;;;;;1.25;0.30;;;23.70;58.70;;;;;;5013076;28;20057;-44
2023/05/16 10:56:25;;;;;;;0.77;0.20;;;24.40;58.70;;;;;;5012698;28;20417;-46
2023/05/16 10:58:52;;;;;;;0.30;0.30;;;25.10;51.90;;;;;;5012565;28;20410;-52
2023/05/16 11:01:27;;;;;;;0.20;0.20;;;25.10;55.70;;;;;;5012460;28;20071;-41
2023/05/16 11:03:56;;;;;;;0.17;0.10;;;24.90;55.10;;;;;;5012474;28;20022;-45
2023/05/16 11:06:43;;;;;;;0.22;0.22;;;24.10;49.60;;;;;;5011058;28;20218;-46
2023/05/16 11:09:14;;;;;;;2.22;0.43;;;23.90;53.60;;;;;;4982966;28;20062;-51
2023/05/16 11:11:50;;;;;;;0.50;0.30;;;24.00;54.50;;;;;;4992694;28;20037;-44
2023/05/16 11:14:27;;;;;;;1.23;0.35;;;24.60;55.40;;;;;;4992420;28;20018;-48
2023/05/16 11:16:59;;;;;;;1.55;0.38;;;24.70;52.00;;;;;;4992751;28;20034;-46
2023/05/16 11:19:48;;;;;;;1.25;0.20;;;24.30;52.70;;;;;;4992622;28;20070;-41
2023/05/16 11:22:22;;;;;;;;;;;23.60;56.00;;;;;;4993212;28;20019;-45
2023/05/16 11:25:09;;;;;;;0.52;0.20;;;23.10;60.30;;;;;;4992367;28;19937;-52
2023/05/16 11:27:40;;;;;;;0.10;0.10;;;23.30;53.90;;;;;;4992387;28;20469;-48
2023/05/16 11:30:06;;;;;;;0.68;0.25;;;23.70;61.10;;;;;;5001383;28;20034;-44
2023/05/16 11:32:40;;;;;;;0.70;0.22;;;24.40;55.10;;;;;;4994794;28;20037;-44
2023/05/16 11:35:07;;;;;;;4.13;0.30;;;25.10;57.30;;;;;;5012043;28;20029;-51
2023/05/16 11:37:38;;;;;;;0.73;0.28;;;24.60;54.20;;;;;;5011869;28;20064;-50
2023/05/16 11:40:07;;;;;;;0.45;0.20;;;24.10;53.50;;;;;;5012077;28;20022;-53
2023/05/16 11:42:47;;;;;;;2.55;0.95;;;23.50;54.20;;;;;;5010495;28;20062;-49
2023/05/16 11:45:18;;;;;;;0.75;0.50;;;22.70;54.80;;;;;;5011887;28;20116;-44
2023/05/16 11:47:46;;;;;;;0.40;0.20;;;22.60;57.10;;;;;;5011618;28;20437;-42
2023/05/16 11:50:16;;;;;;;0.20;0.20;;;23.20;56.10;;;;;;5011692;28;20029;-42
2023/05/16 11:52:44;;;;;;;1.38;0.30;;;23.60;53.90;;;;;;5011603;28;20025;-42
2023/05/16 11:55:11;;;;;;;1.00;0.20;;;24.30;57.70;;;;;;5011669;28;20489;-41
2023/05/16 11:57:37;;;;;;;0.20;0.20;;;24.60;50.90;;;;;;5011736;28;20046;-47
2023/05/16 12:00:10;;;;;;;0.57;0.30;;;24.10;53.00;;;;;;5005370;28;20018;-51
2023/05/16 12:02:35;;;;;;;0.30;0.30;;;23.40;54.40;;;;;;4990390;28;20030;-45
2023/05/16 12:05:09;;;;;;;1.55;0.30;;;23.60;56.90;;;;;;4991884;28;20689;-50
2023/05/16 12:07:35;;;;;;;0.40;0.20;;;23.90;58.40;;;;;;4991982;28;20073;-39
2023/05/16 12:10:08;;;;;;;0.10;0.10;;;24.10;58.00;;;;;;4992083;28;20018;-44
2023/05/16 12:12:39;;;;;;;0.65;0.20;;;24.60;57.30;;;;;;4991745;28;20038;-43
2023/05/16 12:15:06;;;;;;;0.93;0.30;;;25.00;53.60;;;;;;4991623;28;20097;-41
2023/05/16 12:17:34;;;;;;;0.95;0.30;;;25.00;49.90;;;;;;4991491;28;20034;-45
2023/05/16 12:20:00;;;;;;;0.10;0.10;;;24.80;50.00;;;;;;4991463;28;20487;-37
2023/05/16 12:22:26;;;;;;;0.10;0.10;;;24.90;55.80;;;;;;4991690;28;20118;-51
2023/05/16 12:24:51;;;;;;;2.08;0.52;;;25.00;53.70;;;;;;4991397;28;20042;-54
2023/05/16 12:27:27;;;;;;;0.20;0.20;;;24.70;51.30;;;;;;4991657;28;20060;-42
2023/05/16 12:29:52;;;;;;;0.20;0.20;;;24.30;51.60;;;;;;4991700;28;20045;-48
2023/05/16 12:32:21;;;;;;;0.52;0.20;;;24.00;52.50;;;;;;4980384;28;20026;-49
2023/05/16 12:34:51;;;;;;;0.15;0.15;;;24.20;54.70;;;;;;5000848;28;20057;-38
2023/05/16 12:37:17;;;;;;;0.35;0.30;;;24.30;57.00;;;;;;5010857;28;20045;-43
2023/05/16 12:39:45;;;;;;;0.20;0.20;;;24.50;52.30;;;;;;5010411;28;20043;-37
2023/05/16 12:42:12;;;;;;;1.20;0.30;;;24.40;52.50;;;;;;4992012;28;20054;-37
2023/05/16 12:44:38;;;;;;;0.20;0.20;;;24.10;48.80;;;;;;4995002;28;20045;-42
2023/05/16 12:47:11;;;;;;;0.85;0.40;;;23.80;49.90;;;;;;5002414;28;20030;-50
2023/05/16 12:49:43;;;;;;;0.90;0.47;;;24.00;52.20;;;;;;5001105;28;20019;-53
2023/05/16 12:52:17;;;;;;;0.32;0.17;;;23.90;51.30;;;;;;5007637;28;20176;-44
2023/05/16 12:54:44;;;;;;;1.05;0.30;;;23.90;51.60;;;;;;4993747;28;20377;-42